sensor_id;sensor_type;location;lat;lon;timestamp;pressure;altitude;pressure_sealevel;temperature;humidity
73918;BME280;63639;52.280;5.162;2022-09-28T00:01:13;99675.41;;;15.47;58.79
73918;BME280;63639;52.280;5.162;2022-09-28T00:03:40;99675.85;;;15.46;58.81
73918;BME280;63639;52.280;5.162;2022-09-28T00:06:09;99672.64;;;15.45;58.81
73918;BME280;63639;52.280;5.162;2022-09-28T00:08:37;99671.53;;;15.44;58.83
73918;BME280;63639;52.280;5.162;2022-09-28T00:11:06;99670.32;;;15.43;58.86
73918;BME280;63639;52.280;5.162;2022-09-28T00:13:33;99671.67;;;15.42;58.88
73918;BME280;63639;52.280;5.162;2022-09-28T00:16:03;99670.88;;;15.41;58.86
73918;BME280;63639;52.280;5.162;2022-09-28T00:18:30;99672.53;;;15.41;58.78
73918;BME280;63639;52.280;5.162;2022-09-28T00:21:00;99671.55;;;15.40;58.79
73918;BME280;63639;52.280;5.162;2022-09-28T00:23:26;99670.39;;;15.39;58.75
73918;BME280;63639;52.280;5.162;2022-09-28T00:25:53;99671.41;;;15.38;58.76
73918;BME280;63639;52.280;5.162;2022-09-28T00:28:20;99671.26;;;15.37;58.73
73918;BME280;63639;52.280;5.162;2022-09-28T00:30:47;99669.67;;;15.36;58.84
73918;BME280;63639;52.280;5.162;2022-09-28T00:33:14;99669.57;;;15.35;58.81
73918;BME280;63639;52.280;5.162;2022-09-28T00:35:41;99667.52;;;15.35;58.75
73918;BME280;63639;52.280;5.162;2022-09-28T00:38:08;99670.33;;;15.34;58.80
73918;BME280;63639;52.280;5.162;2022-09-28T00:40:35;99671.10;;;15.34;58.76
73918;BME280;63639;52.280;5.162;2022-09-28T00:43:16;99667.16;;;15.33;58.83
73918;BME280;63639;52.280;5.162;2022-09-28T00:45:44;99666.76;;;15.32;58.84
73918;BME280;63639;52.280;5.162;2022-09-28T00:48:11;99669.27;;;15.31;58.69
73918;BME280;63639;52.280;5.162;2022-09-28T00:50:38;99665.90;;;15.30;58.69
73918;BME280;63639;52.280;5.162;2022-09-28T00:53:10;99663.01;;;15.28;58.79
73918;BME280;63639;52.280;5.162;2022-09-28T00:55:43;99660.73;;;15.27;58.76
73918;BME280;63639;52.280;5.162;2022-09-28T00:58:15;99661.09;;;15.26;58.79
73918;BME280;63639;52.280;5.162;2022-09-28T01:03:19;99657.47;;;15.24;58.76
73918;BME280;63639;52.280;5.162;2022-09-28T01:05:47;99653.91;;;15.23;58.71
73918;BME280;63639;52.280;5.162;2022-09-28T01:08:17;99649.39;;;15.21;58.70
73918;BME280;63639;52.280;5.162;2022-09-28T01:10:45;99646.99;;;15.21;58.73
73918;BME280;63639;52.280;5.162;2022-09-28T01:13:13;99644.64;;;15.20;58.72
73918;BME280;63639;52.280;5.162;2022-09-28T01:15:48;99646.09;;;15.20;58.64
73918;BME280;63639;52.280;5.162;2022-09-28T01:18:27;99642.22;;;15.19;58.64
73918;BME280;63639;52.280;5.162;2022-09-28T01:21:05;99640.86;;;15.18;58.64
73918;BME280;63639;52.280;5.162;2022-09-28T01:23:42;99642.08;;;15.18;58.65
73918;BME280;63639;52.280;5.162;2022-09-28T01:27:23;99641.58;;;15.17;58.63
73918;BME280;63639;52.280;5.162;2022-09-28T01:29:59;99643.55;;;15.16;58.59
73918;BME280;63639;52.280;5.162;2022-09-28T01:32:42;99641.43;;;15.15;58.58
73918;BME280;63639;52.280;5.162;2022-09-28T01:35:14;99643.91;;;15.14;58.61
73918;BME280;63639;52.280;5.162;2022-09-28T01:37:51;99641.92;;;15.13;58.60
73918;BME280;63639;52.280;5.162;2022-09-28T01:40:21;99643.83;;;15.11;58.60
73918;BME280;63639;52.280;5.162;2022-09-28T01:42:54;99645.66;;;15.10;58.63
73918;BME280;63639;52.280;5.162;2022-09-28T01:45:27;99647.69;;;15.09;58.67
73918;BME280;63639;52.280;5.162;2022-09-28T01:47:57;99646.65;;;15.07;58.63
73918;BME280;63639;52.280;5.162;2022-09-28T01:50:28;99647.95;;;15.07;58.57
73918;BME280;63639;52.280;5.162;2022-09-28T01:53:02;99645.86;;;15.06;58.54
73918;BME280;63639;52.280;5.162;2022-09-28T01:55:34;99645.06;;;15.05;58.59
73918;BME280;63639;52.280;5.162;2022-09-28T01:58:04;99645.54;;;15.04;58.59
73918;BME280;63639;52.280;5.162;2022-09-28T02:00:35;99643.21;;;15.03;58.54
73918;BME280;63639;52.280;5.162;2022-09-28T02:03:07;99646.53;;;15.03;58.54
73918;BME280;63639;52.280;5.162;2022-09-28T02:05:37;99640.50;;;15.02;58.47
73918;BME280;63639;52.280;5.162;2022-09-28T02:08:08;99640.91;;;15.00;58.50
73918;BME280;63639;52.280;5.162;2022-09-28T02:10:42;99639.22;;;14.99;58.50
73918;BME280;63639;52.280;5.162;2022-09-28T02:13:13;99638.18;;;14.99;58.46
73918;BME280;63639;52.280;5.162;2022-09-28T02:15:47;99639.42;;;14.96;58.62
73918;BME280;63639;52.280;5.162;2022-09-28T02:18:15;99641.64;;;14.95;58.54
73918;BME280;63639;52.280;5.162;2022-09-28T02:20:46;99644.97;;;14.95;58.46
73918;BME280;63639;52.280;5.162;2022-09-28T02:23:16;99640.29;;;14.94;58.43
73918;BME280;63639;52.280;5.162;2022-09-28T02:25:48;99642.77;;;14.93;58.44
73918;BME280;63639;52.280;5.162;2022-09-28T02:28:15;99643.86;;;14.92;58.46
73918;BME280;63639;52.280;5.162;2022-09-28T02:30:43;99643.21;;;14.92;58.46
73918;BME280;63639;52.280;5.162;2022-09-28T02:33:12;99642.34;;;14.91;58.43
73918;BME280;63639;52.280;5.162;2022-09-28T02:35:42;99643.30;;;14.90;58.44
73918;BME280;63639;52.280;5.162;2022-09-28T02:38:10;99641.51;;;14.89;58.42
73918;BME280;63639;52.280;5.162;2022-09-28T02:40:38;99642.96;;;14.88;58.41
73918;BME280;63639;52.280;5.162;2022-09-28T02:43:12;99642.24;;;14.87;58.46
73918;BME280;63639;52.280;5.162;2022-09-28T02:45:49;99643.76;;;14.86;58.43
73918;BME280;63639;52.280;5.162;2022-09-28T02:48:28;99647.31;;;14.85;58.40
73918;BME280;63639;52.280;5.162;2022-09-28T02:51:04;99651.37;;;14.84;58.35
73918;BME280;63639;52.280;5.162;2022-09-28T02:53:53;99652.27;;;14.84;58.31
73918;BME280;63639;52.280;5.162;2022-09-28T02:56:34;99653.60;;;14.82;58.33
73918;BME280;63639;52.280;5.162;2022-09-28T02:59:12;99653.72;;;14.79;58.51
73918;BME280;63639;52.280;5.162;2022-09-28T03:01:49;99656.42;;;14.79;58.38
73918;BME280;63639;52.280;5.162;2022-09-28T03:04:27;99660.50;;;14.78;58.32
73918;BME280;63639;52.280;5.162;2022-09-28T03:07:00;99661.77;;;14.77;58.49
73918;BME280;63639;52.280;5.162;2022-09-28T03:09:34;99669.65;;;14.75;58.47
73918;BME280;63639;52.280;5.162;2022-09-28T03:12:06;99670.77;;;14.74;58.34
73918;BME280;63639;52.280;5.162;2022-09-28T03:14:34;99672.30;;;14.74;58.30
73918;BME280;63639;52.280;5.162;2022-09-28T03:17:01;99673.96;;;14.72;58.29
73918;BME280;63639;52.280;5.162;2022-09-28T03:19:31;99673.80;;;14.72;58.31
73918;BME280;63639;52.280;5.162;2022-09-28T03:22:00;99675.11;;;14.71;58.34
73918;BME280;63639;52.280;5.162;2022-09-28T03:24:27;99675.65;;;14.71;58.30
73918;BME280;63639;52.280;5.162;2022-09-28T03:26:53;99674.67;;;14.69;58.39
73918;BME280;63639;52.280;5.162;2022-09-28T03:29:20;99677.11;;;14.67;58.45
73918;BME280;63639;52.280;5.162;2022-09-28T03:31:47;99672.59;;;14.66;58.50
73918;BME280;63639;52.280;5.162;2022-09-28T03:34:14;99669.19;;;14.65;58.50
73918;BME280;63639;52.280;5.162;2022-09-28T03:36:41;99667.22;;;14.64;58.50
73918;BME280;63639;52.280;5.162;2022-09-28T03:39:08;99665.25;;;14.63;58.54
73918;BME280;63639;52.280;5.162;2022-09-28T03:41:35;99664.29;;;14.61;58.56
73918;BME280;63639;52.280;5.162;2022-09-28T03:44:02;99662.24;;;14.61;58.56
73918;BME280;63639;52.280;5.162;2022-09-28T03:46:29;99663.46;;;14.60;58.48
73918;BME280;63639;52.280;5.162;2022-09-28T03:48:56;99663.60;;;14.59;58.50
73918;BME280;63639;52.280;5.162;2022-09-28T03:51:23;99668.01;;;14.58;58.45
73918;BME280;63639;52.280;5.162;2022-09-28T03:53:50;99666.95;;;14.57;58.49
73918;BME280;63639;52.280;5.162;2022-09-28T03:56:17;99669.30;;;14.56;58.49
73918;BME280;63639;52.280;5.162;2022-09-28T03:58:44;99666.52;;;14.55;58.44
73918;BME280;63639;52.280;5.162;2022-09-28T04:01:12;99666.88;;;14.55;58.47
73918;BME280;63639;52.280;5.162;2022-09-28T04:03:39;99669.27;;;14.54;58.44
73918;BME280;63639;52.280;5.162;2022-09-28T04:06:06;99669.57;;;14.53;58.40
73918;BME280;63639;52.280;5.162;2022-09-28T04:08:34;99673.18;;;14.52;58.40
73918;BME280;63639;52.280;5.162;2022-09-28T04:11:01;99670.87;;;14.50;58.40
73918;BME280;63639;52.280;5.162;2022-09-28T04:13:29;99671.59;;;14.50;58.38
73918;BME280;63639;52.280;5.162;2022-09-28T04:15:57;99665.81;;;14.49;58.43
73918;BME280;63639;52.280;5.162;2022-09-28T04:18:25;99668.13;;;14.48;58.27
73918;BME280;63639;52.280;5.162;2022-09-28T04:21:00;99669.72;;;14.46;58.35
73918;BME280;63639;52.280;5.162;2022-09-28T04:23:26;99672.91;;;14.46;58.34
73918;BME280;63639;52.280;5.162;2022-09-28T04:25:53;99673.91;;;14.45;58.26
73918;BME280;63639;52.280;5.162;2022-09-28T04:28:20;99675.34;;;14.44;58.26
73918;BME280;63639;52.280;5.162;2022-09-28T04:30:47;99677.15;;;14.42;58.33
73918;BME280;63639;52.280;5.162;2022-09-28T04:33:14;99675.39;;;14.41;58.24
73918;BME280;63639;52.280;5.162;2022-09-28T04:35:41;99672.63;;;14.41;58.30
73918;BME280;63639;52.280;5.162;2022-09-28T04:38:08;99673.10;;;14.40;58.27
73918;BME280;63639;52.280;5.162;2022-09-28T04:40:35;99673.38;;;14.38;58.27
73918;BME280;63639;52.280;5.162;2022-09-28T04:43:02;99672.15;;;14.37;58.25
73918;BME280;63639;52.280;5.162;2022-09-28T04:45:29;99669.80;;;14.35;58.26
73918;BME280;63639;52.280;5.162;2022-09-28T04:47:56;99669.73;;;14.35;58.25
73918;BME280;63639;52.280;5.162;2022-09-28T04:50:23;99670.01;;;14.45;57.88
73918;BME280;63639;52.280;5.162;2022-09-28T04:52:50;99670.77;;;14.45;57.80
73918;BME280;63639;52.280;5.162;2022-09-28T04:55:16;99673.73;;;14.45;57.80
73918;BME280;63639;52.280;5.162;2022-09-28T04:57:44;99675.19;;;14.44;57.81
73918;BME280;63639;52.280;5.162;2022-09-28T05:00:12;99678.52;;;14.42;57.81
73918;BME280;63639;52.280;5.162;2022-09-28T05:02:39;99681.39;;;14.41;57.79
73918;BME280;63639;52.280;5.162;2022-09-28T05:05:07;99679.27;;;14.41;57.78
73918;BME280;63639;52.280;5.162;2022-09-28T05:07:34;99680.95;;;14.40;57.81
73918;BME280;63639;52.280;5.162;2022-09-28T05:10:00;99679.91;;;14.39;57.78
73918;BME280;63639;52.280;5.162;2022-09-28T05:12:27;99678.25;;;14.38;57.71
73918;BME280;63639;52.280;5.162;2022-09-28T05:14:54;99681.54;;;14.37;57.70
73918;BME280;63639;52.280;5.162;2022-09-28T05:17:22;99680.55;;;14.37;57.64
73918;BME280;63639;52.280;5.162;2022-09-28T05:19:49;99680.27;;;14.34;57.58
73918;BME280;63639;52.280;5.162;2022-09-28T05:22:16;99680.44;;;14.32;57.60
73918;BME280;63639;52.280;5.162;2022-09-28T05:24:43;99680.31;;;14.30;57.60
73918;BME280;63639;52.280;5.162;2022-09-28T05:27:09;99685.62;;;14.28;57.74
73918;BME280;63639;52.280;5.162;2022-09-28T05:29:37;99690.27;;;14.29;57.76
73918;BME280;63639;52.280;5.162;2022-09-28T05:32:03;99693.00;;;14.28;57.65
73918;BME280;63639;52.280;5.162;2022-09-28T05:34:30;99692.50;;;14.27;57.71
73918;BME280;63639;52.280;5.162;2022-09-28T05:36:57;99697.19;;;14.25;57.68
73918;BME280;63639;52.280;5.162;2022-09-28T05:39:25;99696.78;;;14.23;57.67
73918;BME280;63639;52.280;5.162;2022-09-28T05:41:52;99698.62;;;14.22;57.67
73918;BME280;63639;52.280;5.162;2022-09-28T05:44:20;99697.58;;;14.21;57.70
73918;BME280;63639;52.280;5.162;2022-09-28T05:46:47;99695.08;;;14.19;57.60
73918;BME280;63639;52.280;5.162;2022-09-28T05:49:14;99692.62;;;14.19;57.60
73918;BME280;63639;52.280;5.162;2022-09-28T05:51:41;99694.87;;;14.18;57.62
73918;BME280;63639;52.280;5.162;2022-09-28T05:54:08;99694.44;;;14.20;57.48
73918;BME280;63639;52.280;5.162;2022-09-28T05:56:35;99696.34;;;14.20;57.45
73918;BME280;63639;52.280;5.162;2022-09-28T05:59:02;99693.30;;;14.19;57.46
73918;BME280;63639;52.280;5.162;2022-09-28T06:01:29;99690.92;;;14.20;57.40
73918;BME280;63639;52.280;5.162;2022-09-28T06:03:55;99687.41;;;14.19;57.41
73918;BME280;63639;52.280;5.162;2022-09-28T06:06:22;99688.62;;;14.17;57.44
73918;BME280;63639;52.280;5.162;2022-09-28T06:08:49;99690.67;;;14.17;57.41
73918;BME280;63639;52.280;5.162;2022-09-28T06:11:16;99689.96;;;14.17;57.39
73918;BME280;63639;52.280;5.162;2022-09-28T06:13:43;99687.94;;;14.16;57.39
73918;BME280;63639;52.280;5.162;2022-09-28T06:16:13;99687.72;;;14.16;57.35
73918;BME280;63639;52.280;5.162;2022-09-28T06:18:40;99688.54;;;14.16;57.31
73918;BME280;63639;52.280;5.162;2022-09-28T06:21:07;99692.20;;;14.14;57.31
73918;BME280;63639;52.280;5.162;2022-09-28T06:23:34;99695.33;;;14.13;57.28
73918;BME280;63639;52.280;5.162;2022-09-28T06:26:01;99694.51;;;14.12;57.35
73918;BME280;63639;52.280;5.162;2022-09-28T06:28:28;99700.10;;;14.12;57.35
73918;BME280;63639;52.280;5.162;2022-09-28T06:30:55;99699.44;;;14.12;57.27
73918;BME280;63639;52.280;5.162;2022-09-28T06:33:22;99700.78;;;14.11;57.27
73918;BME280;63639;52.280;5.162;2022-09-28T06:35:49;99700.84;;;14.10;57.26
73918;BME280;63639;52.280;5.162;2022-09-28T06:38:17;99704.50;;;14.09;57.24
73918;BME280;63639;52.280;5.162;2022-09-28T06:40:44;99705.59;;;14.08;57.26
73918;BME280;63639;52.280;5.162;2022-09-28T06:43:12;99706.55;;;14.06;57.34
73918;BME280;63639;52.280;5.162;2022-09-28T06:45:41;99708.26;;;14.05;57.29
73918;BME280;63639;52.280;5.162;2022-09-28T06:48:09;99712.47;;;14.04;57.34
73918;BME280;63639;52.280;5.162;2022-09-28T06:50:39;99714.32;;;14.04;57.30
73918;BME280;63639;52.280;5.162;2022-09-28T06:53:09;99714.60;;;14.04;57.37
73918;BME280;63639;52.280;5.162;2022-09-28T06:55:38;99716.31;;;14.03;57.30
73918;BME280;63639;52.280;5.162;2022-09-28T06:58:08;99721.93;;;14.02;57.37
73918;BME280;63639;52.280;5.162;2022-09-28T07:00:37;99725.06;;;14.01;57.32
73918;BME280;63639;52.280;5.162;2022-09-28T07:03:06;99727.68;;;14.01;57.35
73918;BME280;63639;52.280;5.162;2022-09-28T07:05:35;99730.34;;;14.01;57.41
73918;BME280;63639;52.280;5.162;2022-09-28T07:08:03;99732.86;;;14.00;57.43
73918;BME280;63639;52.280;5.162;2022-09-28T07:10:30;99735.83;;;14.00;57.49
73918;BME280;63639;52.280;5.162;2022-09-28T07:12:59;99740.81;;;14.00;57.43
73918;BME280;63639;52.280;5.162;2022-09-28T07:15:27;99747.30;;;13.99;57.48
73918;BME280;63639;52.280;5.162;2022-09-28T07:17:56;99749.36;;;13.97;57.51
73918;BME280;63639;52.280;5.162;2022-09-28T07:20:23;99749.58;;;13.97;57.51
73918;BME280;63639;52.280;5.162;2022-09-28T07:22:52;99747.53;;;13.97;57.49
73918;BME280;63639;52.280;5.162;2022-09-28T07:25:18;99750.84;;;13.96;57.44
73918;BME280;63639;52.280;5.162;2022-09-28T07:27:45;99752.48;;;13.97;57.46
73918;BME280;63639;52.280;5.162;2022-09-28T07:30:12;99754.03;;;13.97;57.39
73918;BME280;63639;52.280;5.162;2022-09-28T07:32:39;99754.75;;;13.96;57.40
73918;BME280;63639;52.280;5.162;2022-09-28T07:35:06;99755.43;;;13.95;57.37
73918;BME280;63639;52.280;5.162;2022-09-28T07:37:34;99756.46;;;13.96;57.37
73918;BME280;63639;52.280;5.162;2022-09-28T07:40:01;99759.04;;;13.95;57.41
73918;BME280;63639;52.280;5.162;2022-09-28T07:42:28;99762.67;;;13.96;57.52
73918;BME280;63639;52.280;5.162;2022-09-28T07:44:57;99760.93;;;13.97;57.48
73918;BME280;63639;52.280;5.162;2022-09-28T07:47:24;99762.61;;;13.96;57.56
73918;BME280;63639;52.280;5.162;2022-09-28T07:49:52;99764.95;;;13.96;57.55
73918;BME280;63639;52.280;5.162;2022-09-28T07:52:19;99765.95;;;13.97;57.77
73918;BME280;63639;52.280;5.162;2022-09-28T07:54:46;99769.43;;;13.98;57.68
73918;BME280;63639;52.280;5.162;2022-09-28T07:57:13;99767.74;;;13.99;57.74
73918;BME280;63639;52.280;5.162;2022-09-28T07:59:40;99768.73;;;13.99;57.84
73918;BME280;63639;52.280;5.162;2022-09-28T08:02:08;99768.94;;;13.99;57.77
73918;BME280;63639;52.280;5.162;2022-09-28T08:04:35;99769.48;;;14.00;57.74
73918;BME280;63639;52.280;5.162;2022-09-28T08:07:02;99771.56;;;14.00;57.78
73918;BME280;63639;52.280;5.162;2022-09-28T08:09:29;99776.27;;;14.00;57.85
73918;BME280;63639;52.280;5.162;2022-09-28T08:11:56;99778.80;;;14.01;57.83
73918;BME280;63639;52.280;5.162;2022-09-28T08:14:23;99779.32;;;14.01;57.78
73918;BME280;63639;52.280;5.162;2022-09-28T08:16:51;99778.84;;;14.01;57.82
73918;BME280;63639;52.280;5.162;2022-09-28T08:19:18;99783.64;;;14.02;57.85
73918;BME280;63639;52.280;5.162;2022-09-28T08:21:45;99787.24;;;14.02;57.78
73918;BME280;63639;52.280;5.162;2022-09-28T08:24:14;99788.10;;;14.02;58.02
73918;BME280;63639;52.280;5.162;2022-09-28T08:26:41;99787.12;;;14.03;58.34
73918;BME280;63639;52.280;5.162;2022-09-28T08:29:08;99790.47;;;14.05;58.30
73918;BME280;63639;52.280;5.162;2022-09-28T08:31:36;99793.01;;;14.06;57.93
73918;BME280;63639;52.280;5.162;2022-09-28T08:34:03;99796.38;;;14.09;58.67
73918;BME280;63639;52.280;5.162;2022-09-28T08:36:29;99795.47;;;14.09;58.06
73918;BME280;63639;52.280;5.162;2022-09-28T08:38:56;99800.42;;;14.12;58.15
73918;BME280;63639;52.280;5.162;2022-09-28T08:41:31;99805.30;;;14.09;58.21
73918;BME280;63639;52.280;5.162;2022-09-28T08:44:11;99804.01;;;14.07;58.44
73918;BME280;63639;52.280;5.162;2022-09-28T08:46:42;99803.26;;;14.09;58.48
73918;BME280;63639;52.280;5.162;2022-09-28T08:49:15;99810.84;;;14.11;58.46
73918;BME280;63639;52.280;5.162;2022-09-28T08:51:47;99809.80;;;14.14;58.68
73918;BME280;63639;52.280;5.162;2022-09-28T08:54:26;99813.75;;;14.16;58.68
73918;BME280;63639;52.280;5.162;2022-09-28T08:57:00;99814.44;;;14.19;58.70
73918;BME280;63639;52.280;5.162;2022-09-28T08:59:38;99817.84;;;14.22;58.77
73918;BME280;63639;52.280;5.162;2022-09-28T09:02:15;99818.35;;;14.24;58.76
73918;BME280;63639;52.280;5.162;2022-09-28T09:04:45;99820.49;;;14.27;59.06
73918;BME280;63639;52.280;5.162;2022-09-28T09:07:23;99822.10;;;14.31;58.87
73918;BME280;63639;52.280;5.162;2022-09-28T09:10:02;99822.29;;;14.35;58.93
73918;BME280;63639;52.280;5.162;2022-09-28T09:12:39;99826.62;;;14.38;58.92
73918;BME280;63639;52.280;5.162;2022-09-28T09:15:18;99830.96;;;14.41;59.00
73918;BME280;63639;52.280;5.162;2022-09-28T09:17:57;99835.82;;;14.46;59.08
73918;BME280;63639;52.280;5.162;2022-09-28T09:20:34;99837.24;;;14.52;59.11
73918;BME280;63639;52.280;5.162;2022-09-28T09:23:11;99837.88;;;14.56;59.18
73918;BME280;63639;52.280;5.162;2022-09-28T09:25:48;99838.38;;;14.63;59.30
73918;BME280;63639;52.280;5.162;2022-09-28T09:28:35;99839.22;;;14.68;59.20
73918;BME280;63639;52.280;5.162;2022-09-28T09:31:13;99839.07;;;14.74;59.14
73918;BME280;63639;52.280;5.162;2022-09-28T09:33:57;99839.63;;;14.82;59.32
73918;BME280;63639;52.280;5.162;2022-09-28T09:36:37;99843.08;;;14.90;59.46
73918;BME280;63639;52.280;5.162;2022-09-28T09:39:23;99838.37;;;14.99;59.51
73918;BME280;63639;52.280;5.162;2022-09-28T09:42:02;99838.86;;;15.11;59.39
73918;BME280;63639;52.280;5.162;2022-09-28T09:44:45;99836.28;;;15.22;59.26
73918;BME280;63639;52.280;5.162;2022-09-28T09:47:21;99835.87;;;15.32;58.92
73918;BME280;63639;52.280;5.162;2022-09-28T09:49:52;99835.17;;;15.43;59.12
73918;BME280;63639;52.280;5.162;2022-09-28T09:52:24;99836.37;;;15.53;59.01
73918;BME280;63639;52.280;5.162;2022-09-28T09:54:58;99834.24;;;15.64;58.67
73918;BME280;63639;52.280;5.162;2022-09-28T09:57:34;99833.26;;;15.75;58.40
73918;BME280;63639;52.280;5.162;2022-09-28T10:00:15;99835.91;;;15.85;58.46
73918;BME280;63639;52.280;5.162;2022-09-28T10:02:45;99834.82;;;15.95;58.14
73918;BME280;63639;52.280;5.162;2022-09-28T10:05:18;99837.07;;;16.06;57.81
73918;BME280;63639;52.280;5.162;2022-09-28T10:07:51;99837.61;;;16.16;57.79
73918;BME280;63639;52.280;5.162;2022-09-28T10:10:25;99838.00;;;16.25;57.74
73918;BME280;63639;52.280;5.162;2022-09-28T10:12:53;99839.49;;;16.33;57.36
73918;BME280;63639;52.280;5.162;2022-09-28T10:15:23;99840.48;;;16.41;57.59
73918;BME280;63639;52.280;5.162;2022-09-28T10:17:50;99834.31;;;16.51;57.60
73918;BME280;63639;52.280;5.162;2022-09-28T10:20:17;99833.62;;;16.60;57.16
73918;BME280;63639;52.280;5.162;2022-09-28T10:22:45;99832.01;;;16.72;57.12
73918;BME280;63639;52.280;5.162;2022-09-28T10:25:13;99830.98;;;16.83;57.03
73918;BME280;63639;52.280;5.162;2022-09-28T10:27:43;99833.32;;;16.86;57.11
73918;BME280;63639;52.280;5.162;2022-09-28T10:30:16;99828.64;;;16.92;56.57
73918;BME280;63639;52.280;5.162;2022-09-28T10:32:44;99830.75;;;17.01;56.76
73918;BME280;63639;52.280;5.162;2022-09-28T10:35:24;99835.30;;;17.14;56.66
73918;BME280;63639;52.280;5.162;2022-09-28T10:37:55;99831.24;;;17.25;56.19
73918;BME280;63639;52.280;5.162;2022-09-28T10:40:28;99831.76;;;17.36;55.93
73918;BME280;63639;52.280;5.162;2022-09-28T10:43:01;99834.14;;;17.46;55.65
73918;BME280;63639;52.280;5.162;2022-09-28T10:45:34;99837.57;;;17.55;55.74
73918;BME280;63639;52.280;5.162;2022-09-28T10:48:04;99834.71;;;17.64;55.43
73918;BME280;63639;52.280;5.162;2022-09-28T10:50:32;99833.80;;;17.73;55.62
73918;BME280;63639;52.280;5.162;2022-09-28T10:53:10;99832.84;;;17.79;55.28
73918;BME280;63639;52.280;5.162;2022-09-28T10:55:38;99826.81;;;17.80;54.90
73918;BME280;63639;52.280;5.162;2022-09-28T10:58:38;99822.90;;;17.84;54.87
73918;BME280;63639;52.280;5.162;2022-09-28T11:01:09;99828.47;;;17.90;54.70
73918;BME280;63639;52.280;5.162;2022-09-28T11:04:02;99834.46;;;17.99;54.70
73918;BME280;63639;52.280;5.162;2022-09-28T11:06:35;99840.14;;;18.05;54.63
73918;BME280;63639;52.280;5.162;2022-09-28T11:09:05;99838.73;;;18.08;54.53
73918;BME280;63639;52.280;5.162;2022-09-28T11:11:39;99839.43;;;18.12;54.57
73918;BME280;63639;52.280;5.162;2022-09-28T11:14:21;99839.14;;;18.15;54.49
73918;BME280;63639;52.280;5.162;2022-09-28T11:17:14;99840.18;;;18.23;55.38
73918;BME280;63639;52.280;5.162;2022-09-28T11:19:52;99843.93;;;18.32;55.24
73918;BME280;63639;52.280;5.162;2022-09-28T11:22:22;99845.19;;;18.37;55.17
73918;BME280;63639;52.280;5.162;2022-09-28T11:24:51;99845.75;;;18.40;55.30
73918;BME280;63639;52.280;5.162;2022-09-28T11:27:38;99844.70;;;18.43;54.75
73918;BME280;63639;52.280;5.162;2022-09-28T11:30:21;99870.46;;;18.46;54.72
73918;BME280;63639;52.280;5.162;2022-09-28T11:32:55;99869.22;;;18.49;53.75
73918;BME280;63639;52.280;5.162;2022-09-28T11:35:27;99878.31;;;18.51;53.96
73918;BME280;63639;52.280;5.162;2022-09-28T11:38:06;99879.07;;;18.53;53.88
73918;BME280;63639;52.280;5.162;2022-09-28T11:40:46;99876.87;;;18.54;53.83
73918;BME280;63639;52.280;5.162;2022-09-28T11:43:25;99884.91;;;18.56;53.73
73918;BME280;63639;52.280;5.162;2022-09-28T11:46:02;99882.26;;;18.57;53.59
73918;BME280;63639;52.280;5.162;2022-09-28T11:48:41;99882.47;;;18.58;53.64
73918;BME280;63639;52.280;5.162;2022-09-28T11:51:14;99883.06;;;18.59;53.55
73918;BME280;63639;52.280;5.162;2022-09-28T11:53:48;99880.33;;;18.60;53.50
73918;BME280;63639;52.280;5.162;2022-09-28T11:56:24;99877.79;;;18.60;53.44
73918;BME280;63639;52.280;5.162;2022-09-28T11:58:58;99876.15;;;18.60;53.47
73918;BME280;63639;52.280;5.162;2022-09-28T12:01:31;99871.95;;;18.61;53.47
73918;BME280;63639;52.280;5.162;2022-09-28T12:04:05;99867.28;;;18.61;53.47
73918;BME280;63639;52.280;5.162;2022-09-28T12:06:39;99868.87;;;18.61;53.50
73918;BME280;63639;52.280;5.162;2022-09-28T12:09:15;99864.72;;;18.61;53.51
73918;BME280;63639;52.280;5.162;2022-09-28T12:11:46;99862.09;;;18.61;53.58
73918;BME280;63639;52.280;5.162;2022-09-28T12:14:20;99860.84;;;18.61;53.59
73918;BME280;63639;52.280;5.162;2022-09-28T12:16:52;99859.63;;;18.61;53.46
73918;BME280;63639;52.280;5.162;2022-09-28T12:19:26;99856.70;;;18.61;53.54
73918;BME280;63639;52.280;5.162;2022-09-28T12:21:59;99855.80;;;18.61;53.47
73918;BME280;63639;52.280;5.162;2022-09-28T12:24:31;99855.72;;;18.61;53.61
73918;BME280;63639;52.280;5.162;2022-09-28T12:27:03;99856.40;;;18.60;53.62
73918;BME280;63639;52.280;5.162;2022-09-28T12:29:36;99857.04;;;18.60;53.59
73918;BME280;63639;52.280;5.162;2022-09-28T12:32:11;99857.23;;;18.59;53.54
73918;BME280;63639;52.280;5.162;2022-09-28T12:34:44;99854.49;;;18.59;53.36
73918;BME280;63639;52.280;5.162;2022-09-28T12:37:21;99853.38;;;18.58;53.50
73918;BME280;63639;52.280;5.162;2022-09-28T12:40:06;99851.33;;;18.58;53.69
73918;BME280;63639;52.280;5.162;2022-09-28T12:42:46;99848.85;;;18.59;53.62
73918;BME280;63639;52.280;5.162;2022-09-28T12:45:26;99849.59;;;18.58;53.53
73918;BME280;63639;52.280;5.162;2022-09-28T12:48:14;99848.43;;;18.59;53.67
73918;BME280;63639;52.280;5.162;2022-09-28T12:50:54;99847.17;;;18.59;53.79
73918;BME280;63639;52.280;5.162;2022-09-28T12:53:35;99845.24;;;18.59;53.81
73918;BME280;63639;52.280;5.162;2022-09-28T12:56:10;99845.15;;;18.60;53.61
73918;BME280;63639;52.280;5.162;2022-09-28T12:58:54;99845.06;;;18.61;53.85
73918;BME280;63639;52.280;5.162;2022-09-28T13:01:36;99844.40;;;18.64;54.04
73918;BME280;63639;52.280;5.162;2022-09-28T13:04:54;99840.88;;;18.65;54.16
73918;BME280;63639;52.280;5.162;2022-09-28T13:07:30;99839.26;;;18.66;53.97
73918;BME280;63639;52.280;5.162;2022-09-28T13:10:08;99840.67;;;18.67;53.79
73918;BME280;63639;52.280;5.162;2022-09-28T13:12:49;99842.92;;;18.67;54.06
73918;BME280;63639;52.280;5.162;2022-09-28T13:15:28;99845.05;;;18.68;53.96
73918;BME280;63639;52.280;5.162;2022-09-28T13:18:05;99848.86;;;18.68;53.85
73918;BME280;63639;52.280;5.162;2022-09-28T13:20:41;99850.03;;;18.68;53.93
73918;BME280;63639;52.280;5.162;2022-09-28T13:23:15;99849.34;;;18.68;53.92
73918;BME280;63639;52.280;5.162;2022-09-28T13:25:50;99847.80;;;18.69;53.85